createdAt,value
2023-03-03T00:01:58.008Z,31.30
2023-03-03T00:04:25.584Z,37.17
2023-03-03T00:06:53.056Z,34.10
2023-03-03T00:09:20.526Z,29.50
2023-03-03T00:11:56.533Z,25.73
2023-03-03T00:14:33.121Z,28.40
2023-03-03T00:17:02.583Z,26.97
2023-03-03T00:19:41.696Z,28.57
2023-03-03T00:22:24.496Z,31.03
2023-03-03T00:24:52.470Z,38.27
2023-03-03T00:27:36.189Z,36.57
2023-03-03T00:30:07.237Z,37.40
2023-03-03T00:32:50.820Z,36.77
2023-03-03T00:35:39.643Z,29.57
2023-03-03T00:38:18.589Z,32.83
2023-03-03T00:40:49.541Z,29.73
2023-03-03T00:43:37.260Z,35.20
2023-03-03T00:46:04.968Z,32.50
2023-03-03T00:48:44.586Z,29.40
2023-03-03T00:51:23.007Z,27.97
2023-03-03T00:53:51.863Z,30.60
2023-03-03T00:56:19.336Z,26.30
2023-03-03T00:58:48.217Z,32.10
2023-03-03T01:01:21.656Z,27.33
2023-03-03T01:03:52.585Z,25.67
2023-03-03T01:06:20.044Z,30.17
2023-03-03T01:08:47.566Z,31.03
2023-03-03T01:11:22.128Z,28.70
2023-03-03T01:13:51.960Z,33.50
2023-03-03T01:16:20.426Z,29.73
2023-03-03T01:18:47.938Z,25.80
2023-03-03T01:21:18.206Z,28.87
2023-03-03T01:23:45.647Z,32.50
2023-03-03T01:26:13.235Z,31.00
2023-03-03T01:28:40.886Z,30.50
2023-03-03T01:31:08.758Z,27.17
2023-03-03T01:33:37.408Z,27.20
2023-03-03T01:36:05.683Z,30.80
2023-03-03T01:38:36.908Z,27.43
2023-03-03T01:41:05.008Z,31.43
2023-03-03T01:43:33.918Z,27.53
2023-03-03T01:46:01.319Z,26.10
2023-03-03T01:48:32.989Z,26.60
2023-03-03T01:51:24.405Z,26.93
2023-03-03T01:54:06.164Z,26.57
2023-03-03T01:56:33.784Z,32.17
2023-03-03T01:59:07.906Z,30.37
2023-03-03T02:01:38.405Z,27.60
2023-03-03T02:04:06.137Z,24.80
2023-03-03T02:06:40.749Z,26.63
2023-03-03T02:09:29.189Z,25.30
2023-03-03T02:12:08.188Z,30.13
2023-03-03T02:14:36.156Z,28.67
2023-03-03T02:17:03.979Z,31.50
2023-03-03T02:19:41.767Z,28.07
2023-03-03T02:22:12.715Z,25.47
2023-03-03T02:25:00.441Z,22.87
2023-03-03T02:27:31.662Z,25.23
2023-03-03T02:30:08.040Z,28.07
2023-03-03T02:32:36.656Z,24.70
2023-03-03T02:35:32.153Z,28.50
2023-03-03T02:38:15.261Z,23.27
2023-03-03T02:40:55.877Z,30.13
2023-03-03T02:43:29.380Z,31.80
2023-03-03T02:45:57.082Z,28.63
2023-03-03T02:48:25.584Z,33.67
2023-03-03T02:50:53.638Z,33.60
2023-03-03T02:53:21.195Z,31.77
2023-03-03T02:55:48.674Z,32.77
2023-03-03T02:58:16.226Z,30.23
2023-03-03T03:00:43.751Z,31.03
2023-03-03T03:03:11.226Z,35.23
2023-03-03T03:05:40.162Z,29.77
2023-03-03T03:08:07.764Z,30.83
2023-03-03T03:10:37.005Z,35.37
2023-03-03T03:13:05.541Z,31.63
2023-03-03T03:15:34.041Z,31.93
2023-03-03T03:18:01.618Z,33.77
2023-03-03T03:20:29.402Z,35.67
2023-03-03T03:22:56.842Z,33.60
2023-03-03T03:25:24.451Z,33.37
2023-03-03T03:27:51.942Z,40.57
2023-03-03T03:30:20.822Z,35.97
2023-03-03T03:32:49.181Z,37.13
2023-03-03T03:35:17.557Z,30.27
2023-03-03T03:37:45.853Z,37.63
2023-03-03T03:40:13.796Z,37.37
2023-03-03T03:42:42.033Z,39.90
2023-03-03T03:45:10.267Z,39.73
2023-03-03T03:47:37.808Z,41.10
2023-03-03T03:50:06.875Z,44.83
2023-03-03T03:52:34.444Z,42.63
2023-03-03T03:55:03.370Z,39.03
2023-03-03T03:57:30.884Z,34.40
2023-03-03T03:59:58.332Z,36.57
2023-03-03T04:02:26.239Z,39.50
2023-03-03T04:04:54.057Z,37.97
2023-03-03T04:07:21.647Z,36.37
2023-03-03T04:09:49.639Z,38.53
2023-03-03T04:12:17.283Z,32.77
2023-03-03T04:14:44.762Z,34.60
2023-03-03T04:17:19.843Z,28.87
2023-03-03T04:19:47.733Z,35.03
2023-03-03T04:22:15.409Z,35.13
2023-03-03T04:24:44.774Z,30.30
2023-03-03T04:27:13.397Z,31.43
2023-03-03T04:29:41.214Z,32.40
2023-03-03T04:32:09.173Z,31.67
2023-03-03T04:34:37.139Z,31.77
2023-03-03T04:37:04.891Z,32.20
2023-03-03T04:39:32.486Z,32.70
2023-03-03T04:42:00.058Z,31.30
2023-03-03T04:44:28.137Z,34.17
2023-03-03T04:46:55.679Z,34.20
2023-03-03T04:49:23.225Z,44.93
2023-03-03T04:51:50.748Z,43.73
2023-03-03T04:54:18.219Z,83.87
2023-03-03T04:56:45.770Z,64.37
2023-03-03T04:59:15.357Z,51.63
2023-03-03T05:01:43.473Z,43.80
2023-03-03T05:04:11.051Z,43.73
2023-03-03T05:06:39.333Z,40.03
2023-03-03T05:09:06.787Z,45.03
2023-03-03T05:11:34.254Z,57.77
2023-03-03T05:14:03.080Z,50.53
2023-03-03T05:16:30.730Z,42.57
2023-03-03T05:18:58.728Z,129.30
2023-03-03T05:21:26.297Z,61.87
2023-03-03T05:23:53.789Z,61.43
2023-03-03T05:26:21.198Z,54.33
2023-03-03T05:28:48.820Z,44.07
2023-03-03T05:31:16.255Z,42.90
2023-03-03T05:33:43.812Z,42.10
2023-03-03T05:36:11.292Z,38.80
2023-03-03T05:38:38.777Z,38.07
2023-03-03T05:41:06.228Z,35.63
2023-03-03T05:43:33.832Z,40.20
2023-03-03T05:46:01.480Z,37.40
2023-03-03T05:48:29.489Z,37.10
2023-03-03T05:51:02.233Z,40.00
2023-03-03T05:53:30.847Z,33.77
2023-03-03T05:55:58.389Z,35.30
2023-03-03T05:58:25.870Z,37.13
2023-03-03T06:00:53.352Z,39.67
2023-03-03T06:03:20.966Z,35.90
2023-03-03T06:05:48.938Z,33.47
2023-03-03T06:08:16.533Z,35.43
2023-03-03T06:10:44.018Z,30.07
2023-03-03T06:13:14.010Z,32.77
2023-03-03T06:15:41.562Z,26.00
2023-03-03T06:18:09.558Z,25.73
2023-03-03T06:20:38.744Z,23.97
2023-03-03T06:23:06.891Z,22.13
2023-03-03T06:25:35.987Z,22.60
2023-03-03T06:28:04.305Z,48.47
2023-03-03T06:30:31.929Z,27.57
2023-03-03T06:32:59.406Z,21.57
2023-03-03T06:35:31.535Z,21.03
2023-03-03T06:37:59.055Z,20.40
2023-03-03T06:40:26.550Z,24.50
2023-03-03T06:42:54.013Z,18.87
2023-03-03T06:45:23.024Z,17.07
2023-03-03T06:47:50.442Z,22.53
2023-03-03T06:50:21.380Z,32.17
2023-03-03T06:52:49.465Z,22.70
2023-03-03T06:55:23.935Z,18.70
2023-03-03T06:57:51.517Z,28.17
2023-03-03T07:00:30.720Z,26.13
2023-03-03T07:03:12.309Z,20.03
2023-03-03T07:05:39.906Z,19.87
2023-03-03T07:08:21.505Z,21.13
2023-03-03T07:10:51.022Z,19.43
2023-03-03T07:13:27.780Z,21.83
2023-03-03T07:16:03.986Z,19.83
2023-03-03T07:19:06.449Z,17.17
2023-03-03T07:21:37.957Z,17.00
2023-03-03T07:24:29.405Z,14.47
2023-03-03T07:27:24.087Z,16.40
2023-03-03T07:29:56.340Z,17.73
2023-03-03T07:32:43.676Z,16.03
2023-03-03T07:35:42.761Z,16.77
2023-03-03T07:38:25.348Z,16.83
2023-03-03T07:40:56.385Z,15.70
2023-03-03T07:43:37.345Z,16.57
2023-03-03T07:46:23.787Z,15.70
2023-03-03T07:48:53.383Z,16.10
2023-03-03T07:51:37.041Z,15.47
2023-03-03T07:54:40.532Z,19.80
2023-03-03T07:57:40.856Z,18.17
2023-03-03T08:00:34.067Z,34.30
2023-03-03T08:03:05.171Z,17.90
2023-03-03T08:05:43.166Z,30.50
2023-03-03T08:08:10.962Z,17.80
2023-03-03T08:10:55.397Z,16.93
2023-03-03T08:13:27.597Z,27.73
2023-03-03T08:16:15.561Z,26.50
2023-03-03T08:18:48.520Z,20.73
2023-03-03T08:21:20.892Z,25.03
2023-03-03T08:23:53.380Z,26.63
2023-03-03T08:26:23.185Z,25.63
2023-03-03T08:28:51.604Z,28.23
2023-03-03T08:31:40.270Z,28.93
2023-03-03T08:34:09.205Z,21.73
2023-03-03T08:36:36.830Z,20.80
2023-03-03T08:39:06.079Z,25.13
2023-03-03T08:41:35.078Z,25.53
2023-03-03T08:44:03.292Z,20.90
2023-03-03T08:46:30.854Z,22.83
2023-03-03T08:48:58.390Z,22.27
2023-03-03T08:51:26.550Z,20.97
2023-03-03T08:53:54.179Z,22.97
2023-03-03T08:56:21.870Z,24.03
2023-03-03T08:59:01.655Z,24.20
2023-03-03T09:01:31.737Z,20.53
2023-03-03T09:04:00.194Z,23.17
2023-03-03T09:06:27.747Z,23.60
2023-03-03T09:08:55.296Z,23.20
2023-03-03T09:11:29.170Z,21.83
2023-03-03T09:14:18.173Z,22.00
2023-03-03T09:16:52.957Z,23.07
2023-03-03T09:19:37.352Z,24.30
2023-03-03T09:22:25.275Z,25.67
2023-03-03T09:25:02.572Z,21.60
2023-03-03T09:27:35.995Z,22.00
2023-03-03T09:30:47.469Z,21.53
2023-03-03T09:33:41.281Z,20.33
2023-03-03T09:36:31.768Z,23.10
2023-03-03T09:39:00.882Z,21.77
2023-03-03T09:42:10.566Z,28.40
2023-03-03T09:45:17.972Z,25.20
2023-03-03T09:48:02.899Z,22.20
2023-03-03T09:50:57.247Z,32.20
2023-03-03T09:53:36.440Z,55.40
2023-03-03T09:56:35.368Z,25.30
2023-03-03T09:59:30.654Z,23.90
2023-03-03T10:02:21.806Z,19.67
2023-03-03T10:05:17.483Z,22.97
2023-03-03T10:08:11.540Z,17.27
2023-03-03T10:10:51.408Z,16.07
2023-03-03T10:13:52.225Z,15.40
2023-03-03T10:17:15.554Z,26.67
2023-03-03T10:20:00.425Z,19.90
2023-03-03T10:23:08.653Z,22.93
2023-03-03T10:26:11.133Z,49.87
2023-03-03T10:28:44.576Z,31.60
2023-03-03T10:31:43.175Z,162.13
2023-03-03T10:35:01.239Z,97.93
2023-03-03T10:38:05.251Z,113.17
2023-03-03T10:40:50.860Z,88.33
2023-03-03T10:43:51.320Z,107.67
2023-03-03T10:46:50.876Z,102.20
2023-03-03T10:49:53.787Z,75.43
2023-03-03T10:53:09.435Z,75.57
2023-03-03T10:56:11.120Z,23.97
2023-03-03T10:58:53.680Z,26.60
2023-03-03T11:02:11.500Z,41.93
2023-03-03T11:05:06.540Z,44.33
2023-03-03T11:07:42.874Z,40.93
2023-03-03T11:10:30.809Z,59.13
2023-03-03T11:13:35.352Z,31.23
2023-03-03T11:16:21.873Z,73.07
2023-03-03T11:19:02.381Z,64.70
2023-03-03T11:21:47.402Z,26.13
2023-03-03T11:24:51.194Z,18.70
2023-03-03T11:37:10.254Z,16.47
2023-03-03T11:39:40.321Z,15.13
2023-03-03T11:42:17.222Z,17.30
2023-03-03T11:45:20.633Z,21.73
2023-03-03T11:48:14.002Z,20.87
2023-03-03T11:51:27.577Z,15.83
2023-03-03T11:54:22.563Z,29.73
2023-03-03T12:00:09.574Z,18.17
2023-03-03T12:03:37.732Z,23.30
2023-03-03T12:06:28.825Z,16.40
2023-03-03T12:09:29.404Z,15.53
2023-03-03T12:12:22.191Z,20.00
2023-03-03T12:15:05.118Z,16.80
2023-03-03T12:18:06.112Z,18.40
2023-03-03T12:21:03.881Z,16.67
2023-03-03T12:24:10.896Z,17.00
2023-03-03T12:27:16.822Z,19.57
2023-03-03T12:29:53.701Z,17.83
2023-03-03T12:32:48.078Z,16.80
2023-03-03T12:35:42.559Z,14.87
2023-03-03T12:38:19.006Z,17.07
2023-03-03T12:41:08.744Z,26.70
2023-03-03T12:43:54.903Z,29.37
2023-03-03T12:46:39.035Z,25.90
2023-03-03T12:49:06.677Z,26.57
2023-03-03T12:51:51.852Z,19.67
2023-03-03T12:55:06.351Z,22.27
2023-03-03T12:57:53.056Z,15.53
2023-03-03T13:00:39.836Z,20.73
2023-03-03T13:03:56.038Z,17.53
2023-03-03T13:06:30.587Z,20.77
2023-03-03T13:09:33.632Z,18.53
2023-03-03T13:12:32.168Z,27.67
2023-03-03T13:15:24.810Z,24.40
2023-03-03T13:18:34.589Z,36.93
2023-03-03T13:21:19.513Z,19.07
2023-03-03T13:24:18.436Z,19.73
2023-03-03T13:27:01.471Z,17.37
2023-03-03T13:29:57.511Z,20.97
2023-03-03T13:32:42.780Z,16.27
2023-03-03T13:35:32.694Z,19.27
2023-03-03T13:38:02.089Z,14.60
2023-03-03T13:40:49.811Z,17.43
2023-03-03T13:43:47.168Z,19.83
2023-03-03T13:46:45.724Z,17.70
2023-03-03T13:49:46.505Z,19.10
2023-03-03T13:52:23.820Z,16.63
2023-03-03T13:55:26.597Z,16.40
2023-03-03T13:58:13.075Z,16.70
2023-03-03T14:01:28.714Z,16.47
2023-03-03T14:04:06.751Z,18.30
2023-03-03T14:06:34.440Z,12.40
2023-03-03T14:09:15.995Z,10.93
2023-03-03T14:12:08.570Z,12.17
2023-03-03T14:14:57.980Z,14.20
2023-03-03T14:18:05.553Z,14.07
2023-03-03T14:20:40.326Z,16.73
2023-03-03T14:23:25.620Z,34.77
2023-03-03T14:26:07.506Z,23.37
2023-03-03T14:28:45.284Z,16.20
2023-03-03T14:31:31.651Z,13.77
2023-03-03T14:34:24.750Z,12.43
2023-03-03T14:37:09.149Z,15.10
2023-03-03T14:39:39.882Z,13.30
2023-03-03T14:42:49.802Z,14.87
2023-03-03T14:45:34.758Z,14.20
2023-03-03T14:48:32.850Z,17.10
2023-03-03T14:51:30.011Z,13.27
2023-03-03T14:54:01.937Z,12.27
2023-03-03T14:56:39.618Z,15.60
2023-03-03T14:59:28.572Z,15.13
2023-03-03T15:02:17.769Z,15.77
2023-03-03T15:05:09.733Z,13.07
2023-03-03T15:07:38.899Z,16.43
2023-03-03T15:10:10.034Z,13.73
2023-03-03T15:12:46.629Z,16.53
2023-03-03T15:15:22.765Z,14.27
2023-03-03T15:18:05.358Z,15.87
2023-03-03T15:20:41.807Z,13.13
2023-03-03T15:24:03.132Z,17.50
2023-03-03T15:27:02.808Z,17.83
2023-03-03T15:30:02.505Z,20.17
2023-03-03T15:32:59.932Z,20.03
2023-03-03T15:35:53.367Z,18.87
2023-03-03T15:38:56.678Z,18.20
2023-03-03T15:41:59.519Z,14.90
2023-03-03T15:45:06.474Z,16.83
2023-03-03T15:48:09.867Z,16.73
2023-03-03T15:51:09.303Z,17.10
2023-03-03T15:54:10.378Z,17.77
2023-03-03T15:57:00.389Z,21.63
2023-03-03T16:00:02.151Z,17.60
2023-03-03T16:02:58.936Z,22.73
2023-03-03T16:05:34.130Z,16.90
2023-03-03T16:08:14.021Z,20.97
2023-03-03T16:11:16.256Z,22.03
2023-03-03T16:14:29.669Z,18.10
2023-03-03T16:17:36.154Z,18.50
2023-03-03T16:20:42.791Z,23.33
2023-03-03T16:23:39.140Z,22.37
2023-03-03T16:26:40.949Z,22.23
2023-03-03T16:29:50.017Z,31.87
2023-03-03T16:32:41.487Z,19.30
2023-03-03T16:35:29.270Z,21.90
2023-03-03T16:38:00.280Z,26.07
2023-03-03T16:40:38.405Z,25.00
2023-03-03T16:43:33.762Z,24.67
2023-03-03T16:46:38.517Z,22.77
2023-03-03T16:49:33.421Z,21.67
2023-03-03T16:52:37.224Z,18.97
2023-03-03T16:55:37.802Z,24.07
2023-03-03T16:58:33.958Z,18.33
2023-03-03T17:01:33.055Z,21.47
2023-03-03T17:04:36.256Z,17.23
2023-03-03T17:07:44.751Z,17.70
2023-03-03T17:10:33.714Z,17.73
2023-03-03T17:13:20.932Z,20.97
2023-03-03T17:16:06.672Z,20.40
2023-03-03T17:19:23.437Z,19.23
2023-03-03T17:22:17.457Z,18.83
2023-03-03T17:25:11.708Z,19.17
2023-03-03T17:27:57.545Z,17.53
2023-03-03T17:30:42.192Z,17.43
2023-03-03T17:33:34.922Z,20.33
2023-03-03T17:36:30.190Z,23.30
2023-03-03T17:39:30.977Z,21.37
2023-03-03T17:42:35.180Z,27.00
2023-03-03T17:45:14.466Z,23.40
2023-03-03T17:48:32.025Z,19.87
2023-03-03T17:52:00.105Z,21.43
2023-03-03T17:54:51.946Z,29.57
2023-03-03T17:57:33.820Z,25.23
2023-03-03T18:00:45.631Z,19.57
2023-03-03T18:03:48.425Z,21.67
2023-03-03T18:07:12.822Z,24.17
2023-03-03T18:10:10.137Z,22.87
2023-03-03T18:13:10.401Z,22.67
2023-03-03T18:19:02.744Z,65.33
2023-03-03T18:21:52.709Z,27.57
2023-03-03T18:25:01.175Z,26.67
2023-03-03T18:27:36.540Z,24.83
2023-03-03T18:30:35.412Z,27.50
2023-03-03T18:33:11.957Z,25.00
2023-03-03T18:35:47.591Z,28.57
2023-03-03T18:38:27.212Z,37.77
2023-03-03T18:41:28.919Z,29.07
2023-03-03T18:44:04.669Z,23.10
2023-03-03T18:46:32.098Z,23.30
2023-03-03T18:49:08.812Z,69.80
2023-03-03T18:51:39.094Z,135.40
2023-03-03T18:54:12.182Z,171.47
2023-03-03T18:56:48.271Z,336.10
2023-03-03T19:00:09.797Z,208.97
2023-03-03T19:02:46.331Z,130.80
2023-03-03T19:05:38.833Z,115.20
2023-03-03T19:08:53.748Z,57.13
2023-03-03T19:11:56.158Z,36.33
2023-03-03T19:14:29.448Z,44.77
2023-03-03T19:16:59.539Z,31.57
2023-03-03T19:19:34.376Z,45.70
2023-03-03T19:22:28.413Z,33.63
2023-03-03T19:25:23.949Z,53.67
2023-03-03T19:28:38.715Z,64.90
2023-03-03T19:31:37.693Z,83.37
2023-03-03T19:34:16.946Z,39.63
2023-03-03T19:36:58.152Z,32.47
2023-03-03T19:40:16.107Z,29.40
2023-03-03T19:43:28.934Z,36.40
2023-03-03T19:46:29.994Z,86.83
2023-03-03T19:49:54.302Z,32.43
2023-03-03T20:12:40.498Z,39.23
2023-03-03T20:38:47.108Z,36.17
2023-03-03T20:41:37.958Z,35.13
2023-03-03T20:44:51.958Z,34.47
2023-03-03T21:00:12.577Z,41.53
2023-03-03T21:03:37.460Z,40.53
2023-03-03T21:06:20.508Z,49.00
2023-03-03T21:08:54.345Z,46.20
2023-03-03T21:11:44.989Z,44.27
2023-03-03T21:14:24.185Z,41.43
2023-03-03T21:16:57.205Z,40.30
2023-03-03T21:19:38.934Z,41.43
2023-03-03T21:22:06.546Z,32.97
2023-03-03T21:24:59.313Z,38.07
2023-03-03T21:27:38.370Z,34.20
2023-03-03T21:30:28.900Z,46.43
2023-03-03T21:33:02.376Z,43.03
2023-03-03T21:35:29.923Z,36.57
2023-03-03T21:37:58.382Z,81.00
2023-03-03T21:40:29.317Z,116.73
2023-03-03T21:43:00.692Z,88.07
2023-03-03T21:45:30.211Z,108.20
2023-03-03T21:48:01.347Z,117.70
2023-03-03T21:50:32.803Z,82.97
2023-03-03T21:53:01.581Z,43.63
2023-03-03T21:55:30.308Z,35.97
2023-03-03T21:57:57.875Z,36.60
2023-03-03T22:00:26.210Z,34.70
2023-03-03T22:02:55.343Z,36.77
2023-03-03T22:05:42.795Z,33.70
2023-03-03T22:08:10.397Z,48.50
2023-03-03T22:10:39.267Z,48.43
2023-03-03T22:13:06.810Z,46.80
2023-03-03T22:15:34.320Z,42.00
2023-03-03T22:18:01.799Z,36.37
2023-03-03T22:20:29.332Z,31.20
2023-03-03T22:22:56.865Z,34.60
2023-03-03T22:25:26.769Z,35.90
2023-03-03T22:27:54.262Z,36.40
2023-03-03T22:30:21.745Z,32.40
2023-03-03T22:32:52.342Z,36.30
2023-03-03T22:35:22.404Z,36.87
2023-03-03T22:37:49.976Z,34.10
2023-03-03T22:40:18.799Z,39.40
2023-03-03T22:42:46.235Z,36.77
2023-03-03T22:45:14.426Z,32.10
2023-03-03T22:48:24.415Z,37.97
2023-03-03T22:50:53.237Z,37.07
2023-03-03T22:53:21.387Z,36.40
2023-03-03T22:55:50.094Z,39.73
2023-03-03T22:58:21.498Z,42.37
2023-03-03T23:00:49.482Z,50.63
2023-03-03T23:03:37.305Z,51.50
2023-03-03T23:06:05.373Z,54.07
2023-03-03T23:08:32.910Z,51.83
2023-03-03T23:11:00.383Z,52.33
2023-03-03T23:13:27.947Z,58.47
2023-03-03T23:16:00.141Z,59.43
2023-03-03T23:18:30.765Z,60.90
2023-03-03T23:20:58.943Z,57.97
2023-03-03T23:23:26.430Z,56.77
2023-03-03T23:25:54.025Z,49.77
2023-03-03T23:28:30.419Z,48.87
2023-03-03T23:30:58.096Z,47.93
2023-03-03T23:33:25.529Z,58.70
2023-03-03T23:35:53.160Z,55.57
2023-03-03T23:38:20.784Z,55.47
2023-03-03T23:40:48.227Z,65.07
2023-03-03T23:43:15.913Z,60.80
2023-03-03T23:45:43.650Z,67.50
2023-03-03T23:48:11.792Z,67.77
2023-03-03T23:50:39.586Z,69.63
2023-03-03T23:53:08.273Z,62.40
2023-03-03T23:55:37.619Z,63.53
2023-03-03T23:58:05.717Z,58.47
